sensor_id;sensor_type;location;lat;lon;timestamp;P1;durP1;ratioP1;P2;durP2;ratioP2
19163;SDS011;9714;51.208;4.242;2023-10-08T00:01:34;11.53;;;3.03;;
19163;SDS011;9714;51.208;4.242;2023-10-08T00:04:07;7.27;;;2.03;;
19163;SDS011;9714;51.208;4.242;2023-10-08T00:06:35;11.30;;;2.20;;
19163;SDS011;9714;51.208;4.242;2023-10-08T00:09:04;7.43;;;2.13;;
19163;SDS011;9714;51.208;4.242;2023-10-08T00:11:36;6.73;;;2.10;;
19163;SDS011;9714;51.208;4.242;2023-10-08T00:14:04;7.77;;;1.90;;
19163;SDS011;9714;51.208;4.242;2023-10-08T00:16:35;9.73;;;1.93;;
19163;SDS011;9714;51.208;4.242;2023-10-08T00:19:05;5.90;;;1.73;;
19163;SDS011;9714;51.208;4.242;2023-10-08T00:21:41;7.07;;;1.73;;
19163;SDS011;9714;51.208;4.242;2023-10-08T00:24:11;7.60;;;1.97;;
19163;SDS011;9714;51.208;4.242;2023-10-08T00:26:39;9.57;;;2.20;;
19163;SDS011;9714;51.208;4.242;2023-10-08T00:29:07;5.93;;;2.17;;
19163;SDS011;9714;51.208;4.242;2023-10-08T00:31:41;7.70;;;1.70;;
19163;SDS011;9714;51.208;4.242;2023-10-08T00:34:12;9.23;;;2.20;;
19163;SDS011;9714;51.208;4.242;2023-10-08T00:36:39;7.10;;;1.67;;
19163;SDS011;9714;51.208;4.242;2023-10-08T00:39:08;8.13;;;1.93;;
19163;SDS011;9714;51.208;4.242;2023-10-08T00:41:41;5.47;;;1.73;;
19163;SDS011;9714;51.208;4.242;2023-10-08T00:44:09;5.87;;;1.57;;
19163;SDS011;9714;51.208;4.242;2023-10-08T00:46:40;7.30;;;1.70;;
19163;SDS011;9714;51.208;4.242;2023-10-08T00:49:13;9.33;;;2.30;;
19163;SDS011;9714;51.208;4.242;2023-10-08T00:51:53;13.37;;;2.03;;
19163;SDS011;9714;51.208;4.242;2023-10-08T00:54:29;7.67;;;2.20;;
19163;SDS011;9714;51.208;4.242;2023-10-08T00:56:59;8.43;;;2.13;;
19163;SDS011;9714;51.208;4.242;2023-10-08T00:59:31;6.80;;;1.63;;
19163;SDS011;9714;51.208;4.242;2023-10-08T01:02:07;8.23;;;1.90;;
19163;SDS011;9714;51.208;4.242;2023-10-08T01:04:40;10.10;;;1.67;;
19163;SDS011;9714;51.208;4.242;2023-10-08T01:07:09;6.30;;;1.80;;
19163;SDS011;9714;51.208;4.242;2023-10-08T01:09:41;12.83;;;1.97;;
19163;SDS011;9714;51.208;4.242;2023-10-08T01:12:15;9.53;;;2.23;;
19163;SDS011;9714;51.208;4.242;2023-10-08T01:14:47;9.30;;;2.00;;
19163;SDS011;9714;51.208;4.242;2023-10-08T01:17:19;6.70;;;2.00;;
19163;SDS011;9714;51.208;4.242;2023-10-08T01:19:49;5.63;;;1.90;;
19163;SDS011;9714;51.208;4.242;2023-10-08T01:22:25;14.53;;;4.23;;
19163;SDS011;9714;51.208;4.242;2023-10-08T01:24:56;14.63;;;4.77;;
19163;SDS011;9714;51.208;4.242;2023-10-08T01:27:30;8.60;;;2.57;;
19163;SDS011;9714;51.208;4.242;2023-10-08T01:30:07;10.57;;;2.37;;
19163;SDS011;9714;51.208;4.242;2023-10-08T01:32:43;8.07;;;1.90;;
19163;SDS011;9714;51.208;4.242;2023-10-08T01:35:18;5.80;;;2.03;;
19163;SDS011;9714;51.208;4.242;2023-10-08T01:37:58;7.20;;;2.23;;
19163;SDS011;9714;51.208;4.242;2023-10-08T01:40:29;7.03;;;2.50;;
19163;SDS011;9714;51.208;4.242;2023-10-08T01:42:59;7.60;;;2.33;;
19163;SDS011;9714;51.208;4.242;2023-10-08T01:45:29;11.23;;;2.80;;
19163;SDS011;9714;51.208;4.242;2023-10-08T01:48:01;9.87;;;2.33;;
19163;SDS011;9714;51.208;4.242;2023-10-08T01:50:49;11.50;;;2.97;;
19163;SDS011;9714;51.208;4.242;2023-10-08T01:53:29;9.67;;;2.60;;
19163;SDS011;9714;51.208;4.242;2023-10-08T01:56:02;10.53;;;2.57;;
19163;SDS011;9714;51.208;4.242;2023-10-08T01:58:36;7.83;;;2.30;;
19163;SDS011;9714;51.208;4.242;2023-10-08T02:01:05;12.70;;;2.50;;
19163;SDS011;9714;51.208;4.242;2023-10-08T02:03:37;9.87;;;1.90;;
19163;SDS011;9714;51.208;4.242;2023-10-08T02:06:15;8.73;;;2.50;;
19163;SDS011;9714;51.208;4.242;2023-10-08T02:08:49;7.50;;;2.37;;
19163;SDS011;9714;51.208;4.242;2023-10-08T02:11:16;8.53;;;2.33;;
19163;SDS011;9714;51.208;4.242;2023-10-08T02:13:45;9.10;;;2.80;;
19163;SDS011;9714;51.208;4.242;2023-10-08T02:16:17;6.13;;;1.43;;
19163;SDS011;9714;51.208;4.242;2023-10-08T02:18:47;9.37;;;2.30;;
19163;SDS011;9714;51.208;4.242;2023-10-08T02:21:16;7.37;;;1.77;;
19163;SDS011;9714;51.208;4.242;2023-10-08T02:23:44;8.53;;;2.33;;
19163;SDS011;9714;51.208;4.242;2023-10-08T02:26:13;7.20;;;1.73;;
19163;SDS011;9714;51.208;4.242;2023-10-08T02:28:41;9.27;;;2.37;;
19163;SDS011;9714;51.208;4.242;2023-10-08T02:31:08;8.50;;;2.00;;
19163;SDS011;9714;51.208;4.242;2023-10-08T02:33:35;11.33;;;2.43;;
19163;SDS011;9714;51.208;4.242;2023-10-08T02:36:03;13.37;;;3.83;;
19163;SDS011;9714;51.208;4.242;2023-10-08T02:38:30;9.43;;;2.20;;
19163;SDS011;9714;51.208;4.242;2023-10-08T02:41:03;10.40;;;3.00;;
19163;SDS011;9714;51.208;4.242;2023-10-08T02:43:33;9.10;;;2.50;;
19163;SDS011;9714;51.208;4.242;2023-10-08T02:46:02;8.93;;;2.83;;
19163;SDS011;9714;51.208;4.242;2023-10-08T02:48:32;8.10;;;2.43;;
19163;SDS011;9714;51.208;4.242;2023-10-08T02:51:00;7.30;;;2.57;;
19163;SDS011;9714;51.208;4.242;2023-10-08T02:53:39;9.50;;;2.73;;
19163;SDS011;9714;51.208;4.242;2023-10-08T02:56:09;7.20;;;2.23;;
19163;SDS011;9714;51.208;4.242;2023-10-08T02:58:40;12.80;;;2.70;;
19163;SDS011;9714;51.208;4.242;2023-10-08T03:01:09;10.00;;;2.23;;
19163;SDS011;9714;51.208;4.242;2023-10-08T03:03:38;10.33;;;2.70;;
19163;SDS011;9714;51.208;4.242;2023-10-08T03:06:07;7.27;;;2.30;;
19163;SDS011;9714;51.208;4.242;2023-10-08T03:08:37;9.23;;;2.30;;
19163;SDS011;9714;51.208;4.242;2023-10-08T03:11:09;9.80;;;2.70;;
19163;SDS011;9714;51.208;4.242;2023-10-08T03:13:45;7.53;;;2.27;;
19163;SDS011;9714;51.208;4.242;2023-10-08T03:16:17;11.30;;;2.83;;
19163;SDS011;9714;51.208;4.242;2023-10-08T03:18:52;10.33;;;2.90;;
19163;SDS011;9714;51.208;4.242;2023-10-08T03:21:20;8.43;;;2.63;;
19163;SDS011;9714;51.208;4.242;2023-10-08T03:23:48;13.57;;;2.80;;
19163;SDS011;9714;51.208;4.242;2023-10-08T03:26:17;12.90;;;3.57;;
19163;SDS011;9714;51.208;4.242;2023-10-08T03:29:00;10.47;;;2.53;;
19163;SDS011;9714;51.208;4.242;2023-10-08T03:31:33;9.17;;;2.40;;
19163;SDS011;9714;51.208;4.242;2023-10-08T03:34:16;7.93;;;2.73;;
19163;SDS011;9714;51.208;4.242;2023-10-08T03:36:44;8.43;;;2.90;;
19163;SDS011;9714;51.208;4.242;2023-10-08T03:39:14;9.47;;;2.73;;
19163;SDS011;9714;51.208;4.242;2023-10-08T03:41:43;8.90;;;2.80;;
19163;SDS011;9714;51.208;4.242;2023-10-08T03:44:24;11.77;;;2.90;;
19163;SDS011;9714;51.208;4.242;2023-10-08T03:46:54;10.70;;;2.70;;
19163;SDS011;9714;51.208;4.242;2023-10-08T03:49:22;11.87;;;2.93;;
19163;SDS011;9714;51.208;4.242;2023-10-08T03:51:56;14.50;;;3.40;;
19163;SDS011;9714;51.208;4.242;2023-10-08T03:54:23;8.20;;;2.60;;
19163;SDS011;9714;51.208;4.242;2023-10-08T03:56:59;9.90;;;2.90;;
19163;SDS011;9714;51.208;4.242;2023-10-08T03:59:31;12.50;;;2.73;;
19163;SDS011;9714;51.208;4.242;2023-10-08T04:02:00;12.67;;;3.20;;
19163;SDS011;9714;51.208;4.242;2023-10-08T04:04:38;10.63;;;3.37;;
19163;SDS011;9714;51.208;4.242;2023-10-08T04:07:18;8.23;;;2.57;;
19163;SDS011;9714;51.208;4.242;2023-10-08T04:10:05;9.67;;;3.13;;
19163;SDS011;9714;51.208;4.242;2023-10-08T04:12:46;11.50;;;2.87;;
19163;SDS011;9714;51.208;4.242;2023-10-08T04:15:17;14.27;;;3.67;;
19163;SDS011;9714;51.208;4.242;2023-10-08T04:17:45;14.20;;;3.97;;
19163;SDS011;9714;51.208;4.242;2023-10-08T04:20:16;11.53;;;3.27;;
19163;SDS011;9714;51.208;4.242;2023-10-08T04:22:58;10.90;;;3.23;;
19163;SDS011;9714;51.208;4.242;2023-10-08T04:25:27;11.80;;;3.63;;
19163;SDS011;9714;51.208;4.242;2023-10-08T04:27:54;9.73;;;3.20;;
19163;SDS011;9714;51.208;4.242;2023-10-08T04:30:25;15.47;;;3.63;;
19163;SDS011;9714;51.208;4.242;2023-10-08T04:32:58;10.07;;;3.53;;
19163;SDS011;9714;51.208;4.242;2023-10-08T04:35:33;11.67;;;3.03;;
19163;SDS011;9714;51.208;4.242;2023-10-08T04:38:21;10.53;;;3.20;;
19163;SDS011;9714;51.208;4.242;2023-10-08T04:41:04;9.87;;;3.20;;
19163;SDS011;9714;51.208;4.242;2023-10-08T04:43:40;13.70;;;3.90;;
19163;SDS011;9714;51.208;4.242;2023-10-08T04:46:22;10.57;;;3.40;;
19163;SDS011;9714;51.208;4.242;2023-10-08T04:49:08;11.33;;;3.27;;
19163;SDS011;9714;51.208;4.242;2023-10-08T04:54:55;11.77;;;4.07;;
19163;SDS011;9714;51.208;4.242;2023-10-08T04:57:38;19.10;;;3.43;;
19163;SDS011;9714;51.208;4.242;2023-10-08T05:00:18;14.17;;;3.70;;
19163;SDS011;9714;51.208;4.242;2023-10-08T05:03:23;10.57;;;3.67;;
19163;SDS011;9714;51.208;4.242;2023-10-08T05:06:32;14.10;;;4.23;;
19163;SDS011;9714;51.208;4.242;2023-10-08T05:09:31;18.07;;;3.90;;
19163;SDS011;9714;51.208;4.242;2023-10-08T05:12:17;17.17;;;4.63;;
19163;SDS011;9714;51.208;4.242;2023-10-08T05:15:00;15.10;;;4.33;;
19163;SDS011;9714;51.208;4.242;2023-10-08T05:17:45;9.57;;;3.40;;
19163;SDS011;9714;51.208;4.242;2023-10-08T05:20:35;12.73;;;3.77;;
19163;SDS011;9714;51.208;4.242;2023-10-08T05:23:25;12.03;;;3.60;;
19163;SDS011;9714;51.208;4.242;2023-10-08T05:26:10;9.50;;;3.67;;
19163;SDS011;9714;51.208;4.242;2023-10-08T05:28:45;13.07;;;3.97;;
19163;SDS011;9714;51.208;4.242;2023-10-08T05:31:26;9.47;;;3.80;;
19163;SDS011;9714;51.208;4.242;2023-10-08T05:34:13;9.67;;;3.40;;
19163;SDS011;9714;51.208;4.242;2023-10-08T05:36:49;13.30;;;3.47;;
19163;SDS011;9714;51.208;4.242;2023-10-08T05:39:36;12.97;;;3.17;;
19163;SDS011;9714;51.208;4.242;2023-10-08T05:42:07;14.27;;;3.30;;
19163;SDS011;9714;51.208;4.242;2023-10-08T05:44:44;12.37;;;3.33;;
19163;SDS011;9714;51.208;4.242;2023-10-08T05:47:16;10.60;;;3.60;;
19163;SDS011;9714;51.208;4.242;2023-10-08T05:50:04;10.27;;;3.70;;
19163;SDS011;9714;51.208;4.242;2023-10-08T05:52:52;14.77;;;3.97;;
19163;SDS011;9714;51.208;4.242;2023-10-08T05:55:40;10.73;;;3.80;;
19163;SDS011;9714;51.208;4.242;2023-10-08T05:58:12;13.53;;;3.57;;
19163;SDS011;9714;51.208;4.242;2023-10-08T06:00:49;15.53;;;3.53;;
19163;SDS011;9714;51.208;4.242;2023-10-08T06:03:34;10.37;;;3.47;;
19163;SDS011;9714;51.208;4.242;2023-10-08T06:06:11;13.53;;;3.83;;
19163;SDS011;9714;51.208;4.242;2023-10-08T06:09:04;8.63;;;3.07;;
19163;SDS011;9714;51.208;4.242;2023-10-08T06:11:47;9.93;;;3.63;;
19163;SDS011;9714;51.208;4.242;2023-10-08T06:14:37;10.77;;;3.40;;
19163;SDS011;9714;51.208;4.242;2023-10-08T06:17:32;10.67;;;3.30;;
19163;SDS011;9714;51.208;4.242;2023-10-08T06:20:10;15.63;;;4.80;;
19163;SDS011;9714;51.208;4.242;2023-10-08T06:22:42;12.80;;;3.37;;
19163;SDS011;9714;51.208;4.242;2023-10-08T06:25:11;10.93;;;3.60;;
19163;SDS011;9714;51.208;4.242;2023-10-08T06:27:48;14.53;;;3.93;;
19163;SDS011;9714;51.208;4.242;2023-10-08T06:30:19;10.50;;;3.77;;
19163;SDS011;9714;51.208;4.242;2023-10-08T06:32:46;11.30;;;3.73;;
19163;SDS011;9714;51.208;4.242;2023-10-08T06:35:16;11.93;;;4.03;;
19163;SDS011;9714;51.208;4.242;2023-10-08T06:37:44;10.13;;;3.07;;
19163;SDS011;9714;51.208;4.242;2023-10-08T06:40:16;11.57;;;4.37;;
19163;SDS011;9714;51.208;4.242;2023-10-08T06:43:04;13.40;;;4.70;;
19163;SDS011;9714;51.208;4.242;2023-10-08T06:45:37;10.77;;;3.63;;
19163;SDS011;9714;51.208;4.242;2023-10-08T06:48:06;11.43;;;3.43;;
19163;SDS011;9714;51.208;4.242;2023-10-08T06:50:34;8.40;;;3.23;;
19163;SDS011;9714;51.208;4.242;2023-10-08T06:53:02;10.10;;;3.43;;
19163;SDS011;9714;51.208;4.242;2023-10-08T06:55:34;18.07;;;3.60;;
19163;SDS011;9714;51.208;4.242;2023-10-08T06:58:01;9.20;;;3.27;;
19163;SDS011;9714;51.208;4.242;2023-10-08T07:00:33;11.97;;;3.73;;
19163;SDS011;9714;51.208;4.242;2023-10-08T07:03:12;17.07;;;4.93;;
19163;SDS011;9714;51.208;4.242;2023-10-08T07:05:41;12.13;;;4.13;;
19163;SDS011;9714;51.208;4.242;2023-10-08T07:08:10;10.10;;;3.60;;
19163;SDS011;9714;51.208;4.242;2023-10-08T07:10:41;12.73;;;4.00;;
19163;SDS011;9714;51.208;4.242;2023-10-08T07:13:12;13.87;;;3.67;;
19163;SDS011;9714;51.208;4.242;2023-10-08T07:15:42;15.23;;;3.53;;
19163;SDS011;9714;51.208;4.242;2023-10-08T07:18:10;10.57;;;3.57;;
19163;SDS011;9714;51.208;4.242;2023-10-08T07:20:44;12.90;;;3.63;;
19163;SDS011;9714;51.208;4.242;2023-10-08T07:23:18;15.83;;;4.10;;
19163;SDS011;9714;51.208;4.242;2023-10-08T07:26:07;15.83;;;3.37;;
19163;SDS011;9714;51.208;4.242;2023-10-08T07:28:37;12.97;;;3.70;;
19163;SDS011;9714;51.208;4.242;2023-10-08T07:31:06;14.77;;;4.07;;
19163;SDS011;9714;51.208;4.242;2023-10-08T07:33:41;10.43;;;3.33;;
19163;SDS011;9714;51.208;4.242;2023-10-08T07:36:14;10.90;;;3.17;;
19163;SDS011;9714;51.208;4.242;2023-10-08T07:38:43;11.73;;;3.95;;
19163;SDS011;9714;51.208;4.242;2023-10-08T07:41:13;11.75;;;3.65;;
19163;SDS011;9714;51.208;4.242;2023-10-08T07:43:41;11.48;;;3.15;;
19163;SDS011;9714;51.208;4.242;2023-10-08T07:46:08;13.27;;;3.40;;
19163;SDS011;9714;51.208;4.242;2023-10-08T07:48:39;13.50;;;3.45;;
19163;SDS011;9714;51.208;4.242;2023-10-08T07:51:17;12.77;;;3.30;;
19163;SDS011;9714;51.208;4.242;2023-10-08T07:53:49;8.23;;;2.95;;
19163;SDS011;9714;51.208;4.242;2023-10-08T07:56:26;13.43;;;3.10;;
19163;SDS011;9714;51.208;4.242;2023-10-08T07:59:07;10.23;;;3.40;;
19163;SDS011;9714;51.208;4.242;2023-10-08T08:01:40;15.13;;;3.70;;
19163;SDS011;9714;51.208;4.242;2023-10-08T08:04:10;11.60;;;3.15;;
19163;SDS011;9714;51.208;4.242;2023-10-08T08:06:48;10.40;;;3.55;;
19163;SDS011;9714;51.208;4.242;2023-10-08T08:09:19;9.55;;;3.22;;
19163;SDS011;9714;51.208;4.242;2023-10-08T08:11:53;10.60;;;2.83;;
19163;SDS011;9714;51.208;4.242;2023-10-08T08:14:26;17.83;;;4.20;;
19163;SDS011;9714;51.208;4.242;2023-10-08T08:17:03;13.60;;;3.45;;
19163;SDS011;9714;51.208;4.242;2023-10-08T08:19:51;9.93;;;2.92;;
19163;SDS011;9714;51.208;4.242;2023-10-08T08:22:21;11.45;;;3.40;;
19163;SDS011;9714;51.208;4.242;2023-10-08T08:24:56;13.50;;;3.33;;
19163;SDS011;9714;51.208;4.242;2023-10-08T08:27:32;11.57;;;3.60;;
19163;SDS011;9714;51.208;4.242;2023-10-08T08:30:04;12.23;;;3.30;;
19163;SDS011;9714;51.208;4.242;2023-10-08T08:32:44;10.35;;;3.42;;
19163;SDS011;9714;51.208;4.242;2023-10-08T08:35:13;17.15;;;3.83;;
19163;SDS011;9714;51.208;4.242;2023-10-08T08:37:41;12.98;;;3.90;;
19163;SDS011;9714;51.208;4.242;2023-10-08T08:40:09;9.95;;;3.47;;
19163;SDS011;9714;51.208;4.242;2023-10-08T08:42:44;17.10;;;4.15;;
19163;SDS011;9714;51.208;4.242;2023-10-08T08:45:13;13.48;;;4.05;;
19163;SDS011;9714;51.208;4.242;2023-10-08T08:47:45;10.52;;;3.65;;
19163;SDS011;9714;51.208;4.242;2023-10-08T08:50:13;9.18;;;3.17;;
19163;SDS011;9714;51.208;4.242;2023-10-08T08:52:42;14.07;;;4.15;;
19163;SDS011;9714;51.208;4.242;2023-10-08T08:55:11;12.38;;;3.78;;
19163;SDS011;9714;51.208;4.242;2023-10-08T08:57:40;9.82;;;3.95;;
19163;SDS011;9714;51.208;4.242;2023-10-08T09:00:10;17.02;;;4.15;;
19163;SDS011;9714;51.208;4.242;2023-10-08T09:02:39;12.23;;;3.63;;
19163;SDS011;9714;51.208;4.242;2023-10-08T09:05:10;11.32;;;4.10;;
19163;SDS011;9714;51.208;4.242;2023-10-08T09:07:53;13.82;;;3.97;;
19163;SDS011;9714;51.208;4.242;2023-10-08T09:10:21;14.88;;;4.22;;
19163;SDS011;9714;51.208;4.242;2023-10-08T09:12:53;20.35;;;4.70;;
19163;SDS011;9714;51.208;4.242;2023-10-08T09:15:25;14.27;;;4.18;;
19163;SDS011;9714;51.208;4.242;2023-10-08T09:17:53;15.35;;;4.57;;
19163;SDS011;9714;51.208;4.242;2023-10-08T09:20:23;13.20;;;5.18;;
19163;SDS011;9714;51.208;4.242;2023-10-08T09:23:05;16.70;;;4.07;;
19163;SDS011;9714;51.208;4.242;2023-10-08T09:25:33;15.40;;;4.65;;
19163;SDS011;9714;51.208;4.242;2023-10-08T09:28:01;12.57;;;4.13;;
19163;SDS011;9714;51.208;4.242;2023-10-08T09:30:34;13.82;;;4.18;;
19163;SDS011;9714;51.208;4.242;2023-10-08T09:33:04;12.88;;;4.18;;
19163;SDS011;9714;51.208;4.242;2023-10-08T09:35:32;11.43;;;4.28;;
19163;SDS011;9714;51.208;4.242;2023-10-08T09:37:59;12.25;;;4.72;;
19163;SDS011;9714;51.208;4.242;2023-10-08T09:40:28;10.10;;;3.67;;
19163;SDS011;9714;51.208;4.242;2023-10-08T09:42:55;13.75;;;3.95;;
19163;SDS011;9714;51.208;4.242;2023-10-08T09:45:23;11.95;;;3.95;;
19163;SDS011;9714;51.208;4.242;2023-10-08T09:47:54;12.70;;;4.05;;
19163;SDS011;9714;51.208;4.242;2023-10-08T09:50:23;12.52;;;4.43;;
19163;SDS011;9714;51.208;4.242;2023-10-08T09:52:56;17.05;;;3.97;;
19163;SDS011;9714;51.208;4.242;2023-10-08T09:55:29;12.43;;;3.92;;
19163;SDS011;9714;51.208;4.242;2023-10-08T09:57:56;15.70;;;4.45;;
19163;SDS011;9714;51.208;4.242;2023-10-08T10:00:23;11.13;;;3.70;;
19163;SDS011;9714;51.208;4.242;2023-10-08T10:02:58;11.38;;;3.92;;
19163;SDS011;9714;51.208;4.242;2023-10-08T10:05:30;11.43;;;3.97;;
19163;SDS011;9714;51.208;4.242;2023-10-08T10:07:59;15.32;;;4.05;;
19163;SDS011;9714;51.208;4.242;2023-10-08T10:10:26;14.43;;;4.53;;
19163;SDS011;9714;51.208;4.242;2023-10-08T10:12:58;12.20;;;4.80;;
19163;SDS011;9714;51.208;4.242;2023-10-08T10:15:27;12.30;;;4.00;;
19163;SDS011;9714;51.208;4.242;2023-10-08T10:18:00;12.02;;;4.38;;
19163;SDS011;9714;51.208;4.242;2023-10-08T10:20:38;17.67;;;5.30;;
19163;SDS011;9714;51.208;4.242;2023-10-08T10:26:02;13.95;;;5.10;;
19163;SDS011;9714;51.208;4.242;2023-10-08T10:28:30;19.92;;;5.20;;
19163;SDS011;9714;51.208;4.242;2023-10-08T10:30:59;13.52;;;4.72;;
19163;SDS011;9714;51.208;4.242;2023-10-08T10:33:31;13.27;;;4.55;;
19163;SDS011;9714;51.208;4.242;2023-10-08T10:36:00;12.18;;;4.60;;
19163;SDS011;9714;51.208;4.242;2023-10-08T10:38:30;13.85;;;4.10;;
19163;SDS011;9714;51.208;4.242;2023-10-08T10:40:59;15.18;;;4.72;;
19163;SDS011;9714;51.208;4.242;2023-10-08T10:43:34;12.75;;;4.93;;
19163;SDS011;9714;51.208;4.242;2023-10-08T10:46:05;15.75;;;4.43;;
19163;SDS011;9714;51.208;4.242;2023-10-08T10:48:58;13.05;;;4.03;;
19163;SDS011;9714;51.208;4.242;2023-10-08T10:51:43;10.57;;;4.43;;
19163;SDS011;9714;51.208;4.242;2023-10-08T10:54:12;12.82;;;4.07;;
19163;SDS011;9714;51.208;4.242;2023-10-08T10:56:48;11.52;;;4.28;;
19163;SDS011;9714;51.208;4.242;2023-10-08T10:59:37;16.35;;;4.78;;
19163;SDS011;9714;51.208;4.242;2023-10-08T11:02:05;15.30;;;4.10;;
19163;SDS011;9714;51.208;4.242;2023-10-08T11:04:35;12.50;;;4.10;;
19163;SDS011;9714;51.208;4.242;2023-10-08T11:07:13;13.88;;;4.25;;
19163;SDS011;9714;51.208;4.242;2023-10-08T11:09:43;16.30;;;4.40;;
19163;SDS011;9714;51.208;4.242;2023-10-08T11:12:12;14.27;;;4.25;;
19163;SDS011;9714;51.208;4.242;2023-10-08T11:14:45;13.07;;;4.18;;
19163;SDS011;9714;51.208;4.242;2023-10-08T11:17:29;10.65;;;3.83;;
19163;SDS011;9714;51.208;4.242;2023-10-08T11:20:00;13.77;;;3.63;;
19163;SDS011;9714;51.208;4.242;2023-10-08T11:22:40;13.98;;;3.72;;
19163;SDS011;9714;51.208;4.242;2023-10-08T11:25:20;11.07;;;3.33;;
19163;SDS011;9714;51.208;4.242;2023-10-08T11:27:58;13.82;;;3.85;;
19163;SDS011;9714;51.208;4.242;2023-10-08T11:30:31;12.63;;;4.07;;
19163;SDS011;9714;51.208;4.242;2023-10-08T11:33:01;13.40;;;4.03;;
19163;SDS011;9714;51.208;4.242;2023-10-08T11:35:32;15.13;;;3.92;;
19163;SDS011;9714;51.208;4.242;2023-10-08T11:38:00;11.13;;;3.92;;
19163;SDS011;9714;51.208;4.242;2023-10-08T11:40:28;10.30;;;3.45;;
19163;SDS011;9714;51.208;4.242;2023-10-08T11:43:14;9.95;;;3.20;;
19163;SDS011;9714;51.208;4.242;2023-10-08T11:45:42;13.98;;;3.55;;
19163;SDS011;9714;51.208;4.242;2023-10-08T11:48:13;16.45;;;4.13;;
19163;SDS011;9714;51.208;4.242;2023-10-08T11:50:48;13.30;;;4.05;;
19163;SDS011;9714;51.208;4.242;2023-10-08T11:53:16;10.88;;;3.53;;
19163;SDS011;9714;51.208;4.242;2023-10-08T11:55:44;12.15;;;4.30;;
19163;SDS011;9714;51.208;4.242;2023-10-08T11:58:13;11.90;;;4.38;;
19163;SDS011;9714;51.208;4.242;2023-10-08T12:00:45;10.40;;;3.53;;
19163;SDS011;9714;51.208;4.242;2023-10-08T12:03:17;10.30;;;3.17;;
19163;SDS011;9714;51.208;4.242;2023-10-08T12:05:45;11.27;;;3.58;;
19163;SDS011;9714;51.208;4.242;2023-10-08T12:08:15;13.35;;;3.65;;
19163;SDS011;9714;51.208;4.242;2023-10-08T12:10:45;12.10;;;3.88;;
19163;SDS011;9714;51.208;4.242;2023-10-08T12:13:14;15.10;;;4.57;;
19163;SDS011;9714;51.208;4.242;2023-10-08T12:15:43;12.13;;;4.10;;
19163;SDS011;9714;51.208;4.242;2023-10-08T12:18:12;12.30;;;3.28;;
19163;SDS011;9714;51.208;4.242;2023-10-08T12:20:41;16.83;;;4.25;;
19163;SDS011;9714;51.208;4.242;2023-10-08T12:23:11;13.05;;;3.72;;
19163;SDS011;9714;51.208;4.242;2023-10-08T12:25:49;14.50;;;3.92;;
19163;SDS011;9714;51.208;4.242;2023-10-08T12:28:17;10.50;;;3.58;;
19163;SDS011;9714;51.208;4.242;2023-10-08T12:30:46;12.80;;;4.13;;
19163;SDS011;9714;51.208;4.242;2023-10-08T12:33:14;11.02;;;3.75;;
19163;SDS011;9714;51.208;4.242;2023-10-08T12:35:42;10.23;;;3.50;;
19163;SDS011;9714;51.208;4.242;2023-10-08T12:38:10;16.05;;;4.35;;
19163;SDS011;9714;51.208;4.242;2023-10-08T12:40:38;11.85;;;3.47;;
19163;SDS011;9714;51.208;4.242;2023-10-08T12:43:14;10.93;;;3.78;;
19163;SDS011;9714;51.208;4.242;2023-10-08T12:45:44;12.18;;;3.47;;
19163;SDS011;9714;51.208;4.242;2023-10-08T12:48:18;13.90;;;4.25;;
19163;SDS011;9714;51.208;4.242;2023-10-08T12:50:46;15.43;;;4.70;;
19163;SDS011;9714;51.208;4.242;2023-10-08T12:53:19;14.95;;;4.13;;
19163;SDS011;9714;51.208;4.242;2023-10-08T12:55:52;15.02;;;3.83;;
19163;SDS011;9714;51.208;4.242;2023-10-08T12:58:24;15.57;;;4.07;;
19163;SDS011;9714;51.208;4.242;2023-10-08T13:00:54;12.77;;;3.63;;
19163;SDS011;9714;51.208;4.242;2023-10-08T13:03:24;11.98;;;3.97;;
19163;SDS011;9714;51.208;4.242;2023-10-08T13:05:55;10.32;;;3.20;;
19163;SDS011;9714;51.208;4.242;2023-10-08T13:08:29;11.40;;;3.55;;
19163;SDS011;9714;51.208;4.242;2023-10-08T13:10:56;14.68;;;4.15;;
19163;SDS011;9714;51.208;4.242;2023-10-08T13:13:28;14.23;;;3.67;;
19163;SDS011;9714;51.208;4.242;2023-10-08T13:15:55;11.85;;;3.85;;
19163;SDS011;9714;51.208;4.242;2023-10-08T13:18:25;12.50;;;3.83;;
19163;SDS011;9714;51.208;4.242;2023-10-08T13:20:52;11.25;;;3.90;;
19163;SDS011;9714;51.208;4.242;2023-10-08T13:23:20;13.02;;;3.40;;
19163;SDS011;9714;51.208;4.242;2023-10-08T13:25:51;12.23;;;4.07;;
19163;SDS011;9714;51.208;4.242;2023-10-08T13:28:20;11.70;;;3.63;;
19163;SDS011;9714;51.208;4.242;2023-10-08T13:30:49;15.05;;;3.92;;
19163;SDS011;9714;51.208;4.242;2023-10-08T13:33:19;12.15;;;3.45;;
19163;SDS011;9714;51.208;4.242;2023-10-08T13:35:47;12.35;;;3.88;;
19163;SDS011;9714;51.208;4.242;2023-10-08T13:38:16;12.48;;;3.70;;
19163;SDS011;9714;51.208;4.242;2023-10-08T13:40:46;10.80;;;3.83;;
19163;SDS011;9714;51.208;4.242;2023-10-08T13:43:41;13.23;;;3.50;;
19163;SDS011;9714;51.208;4.242;2023-10-08T13:46:12;14.02;;;3.80;;
19163;SDS011;9714;51.208;4.242;2023-10-08T13:48:41;12.02;;;3.47;;
19163;SDS011;9714;51.208;4.242;2023-10-08T13:51:13;15.07;;;3.92;;
19163;SDS011;9714;51.208;4.242;2023-10-08T13:53:47;11.45;;;3.33;;
19163;SDS011;9714;51.208;4.242;2023-10-08T13:56:17;13.38;;;3.92;;
19163;SDS011;9714;51.208;4.242;2023-10-08T13:58:48;17.63;;;3.25;;
19163;SDS011;9714;51.208;4.242;2023-10-08T14:01:16;14.30;;;3.28;;
19163;SDS011;9714;51.208;4.242;2023-10-08T14:03:47;11.18;;;4.05;;
19163;SDS011;9714;51.208;4.242;2023-10-08T14:06:18;15.27;;;3.67;;
19163;SDS011;9714;51.208;4.242;2023-10-08T14:08:47;10.65;;;3.75;;
19163;SDS011;9714;51.208;4.242;2023-10-08T14:11:18;12.50;;;3.80;;
19163;SDS011;9714;51.208;4.242;2023-10-08T14:13:50;11.95;;;3.90;;
19163;SDS011;9714;51.208;4.242;2023-10-08T14:16:17;12.82;;;4.13;;
19163;SDS011;9714;51.208;4.242;2023-10-08T14:18:48;13.77;;;4.13;;
19163;SDS011;9714;51.208;4.242;2023-10-08T14:21:20;9.25;;;3.00;;
19163;SDS011;9714;51.208;4.242;2023-10-08T14:23:49;13.18;;;3.50;;
19163;SDS011;9714;51.208;4.242;2023-10-08T14:26:18;11.07;;;3.55;;
19163;SDS011;9714;51.208;4.242;2023-10-08T14:28:48;14.90;;;3.53;;
19163;SDS011;9714;51.208;4.242;2023-10-08T14:31:22;12.35;;;3.78;;
19163;SDS011;9714;51.208;4.242;2023-10-08T14:33:51;13.68;;;3.80;;
19163;SDS011;9714;51.208;4.242;2023-10-08T14:36:30;11.73;;;3.88;;
19163;SDS011;9714;51.208;4.242;2023-10-08T14:39:16;15.50;;;3.75;;
19163;SDS011;9714;51.208;4.242;2023-10-08T14:42:09;12.02;;;3.60;;
19163;SDS011;9714;51.208;4.242;2023-10-08T14:44:55;14.75;;;3.28;;
19163;SDS011;9714;51.208;4.242;2023-10-08T14:47:22;12.15;;;3.65;;
19163;SDS011;9714;51.208;4.242;2023-10-08T14:49:49;10.02;;;2.95;;
19163;SDS011;9714;51.208;4.242;2023-10-08T14:52:16;9.98;;;3.17;;
19163;SDS011;9714;51.208;4.242;2023-10-08T14:54:43;13.52;;;3.55;;
19163;SDS011;9714;51.208;4.242;2023-10-08T14:57:10;14.98;;;3.53;;
19163;SDS011;9714;51.208;4.242;2023-10-08T14:59:39;13.75;;;3.55;;
19163;SDS011;9714;51.208;4.242;2023-10-08T15:02:08;8.95;;;3.22;;
19163;SDS011;9714;51.208;4.242;2023-10-08T15:04:36;10.18;;;3.08;;
19163;SDS011;9714;51.208;4.242;2023-10-08T15:07:04;9.90;;;2.95;;
19163;SDS011;9714;51.208;4.242;2023-10-08T15:09:33;15.43;;;3.75;;
19163;SDS011;9714;51.208;4.242;2023-10-08T15:12:01;11.63;;;3.33;;
19163;SDS011;9714;51.208;4.242;2023-10-08T15:14:28;12.38;;;3.70;;
19163;SDS011;9714;51.208;4.242;2023-10-08T15:16:56;9.68;;;3.30;;
19163;SDS011;9714;51.208;4.242;2023-10-08T15:19:24;11.75;;;3.28;;
19163;SDS011;9714;51.208;4.242;2023-10-08T15:21:52;10.50;;;3.58;;
19163;SDS011;9714;51.208;4.242;2023-10-08T15:24:19;12.38;;;3.10;;
19163;SDS011;9714;51.208;4.242;2023-10-08T15:26:48;11.75;;;4.03;;
19163;SDS011;9714;51.208;4.242;2023-10-08T15:29:18;9.85;;;3.28;;
19163;SDS011;9714;51.208;4.242;2023-10-08T15:31:46;9.02;;;3.08;;